Terminal Aerodrome Forecast
Issued by NWS

Home | Current Version | Previous Version | Text Only | Print | Product List | Glossary On
Versions: 1 2 3 4 5 6 7 8 9 10 11 12 13 14 15 16 17 18 19 20
000
FTUS41 KBTV 281700
TAFMPV
TAF
KMPV 281733Z 2818/2918 VRB06KT P6SM VCSH BKN015 OVC025
      TEMPO 2818/2821 5SM -RA BR OVC015
     FM282100 VRB05KT P6SM VCTS BKN025 BKN050CB
     FM290000 VRB03KT 5SM -SHRA BR OVC015
     FM290600 VRB03KT P6SM OVC020
     FM290900 29005KT P6SM BKN090
     FM291300 29006KT P6SM SCT250=

USA.gov is the U.S. government's official web portal to all federal, state and local government web resources and services.